Time;durP1;ratioP1;P1;durP2;ratioP2;P2;SDS_P1;SDS_P2;PMS_P1;PMS_P2;Temp;Humidity;BMP_temperature;BMP_pressure;BME280_temperature;BME280_humidity;BME280_pressure;Samples;Min_cycle;Max_cycle;Signal;HPM_P1;HPM_P2
2023/05/20 00:01:53;;;;;;;0.35;0.35;;;;;;;;;;5023849;28;58622;-61
2023/05/20 00:04:18;;;;;;;0.38;0.38;;;;;;;;;;5021595;28;58752;-59
2023/05/20 00:06:44;;;;;;;0.20;0.20;;;;;;;;;;5020803;28;58813;-61
2023/05/20 00:09:09;;;;;;;0.30;0.30;;;;;;;;;;5026014;28;58089;-61
2023/05/20 00:11:34;;;;;;;0.32;0.20;;;;;;;;;;5020249;28;58545;-60
2023/05/20 00:14:00;;;;;;;0.37;0.37;;;;;;;;;;5024968;28;58713;-61
2023/05/20 00:16:25;;;;;;;0.33;0.20;;;;;;;;;;5018723;28;60046;-61
2023/05/20 00:18:50;;;;;;;0.53;0.40;;;;;;;;;;5023618;28;58270;-59
2023/05/20 00:21:15;;;;;;;0.63;0.55;;;;;;;;;;5025664;28;58759;-61
2023/05/20 00:23:40;;;;;;;0.93;0.30;;;;;;;;;;5023490;28;58559;-57
2023/05/20 00:26:05;;;;;;;0.30;0.30;;;;;;;;;;5020940;28;58651;-61
2023/05/20 00:28:30;;;;;;;0.20;0.20;;;;;;;;;;5021691;28;59098;-59
2023/05/20 00:30:56;;;;;;;1.75;0.20;;;;;;;;;;5024169;28;58612;-61
2023/05/20 00:33:21;;;;;;;0.13;0.10;;;;;;;;;;5024204;28;58473;-61
2023/05/20 00:35:46;;;;;;;0.63;0.32;;;;;;;;;;5021322;28;59132;-61
2023/05/20 00:38:11;;;;;;;0.50;0.50;;;;;;;;;;5020435;28;58530;-61
2023/05/20 00:40:36;;;;;;;0.23;0.23;;;;;;;;;;5021042;28;59035;-61
2023/05/20 00:43:01;;;;;;;0.87;0.30;;;;;;;;;;5024460;28;59048;-60
2023/05/20 00:45:27;;;;;;;0.22;0.22;;;;;;;;;;5023438;28;58715;-57
2023/05/20 00:47:52;;;;;;;0.20;0.20;;;;;;;;;;5024869;28;58300;-61
2023/05/20 00:50:17;;;;;;;0.30;0.30;;;;;;;;;;5017156;28;58614;-61
2023/05/20 00:52:44;;;;;;;0.40;0.40;;;;;;;;;;5024617;28;58337;-60
2023/05/20 00:55:09;;;;;;;0.20;0.20;;;;;;;;;;5022024;28;59206;-61
2023/05/20 00:57:34;;;;;;;0.87;0.43;;;;;;;;;;5020481;28;58591;-60
2023/05/20 00:59:59;;;;;;;0.30;0.30;;;;;;;;;;5019513;28;58402;-60
2023/05/20 01:02:25;;;;;;;0.30;0.30;;;;;;;;;;5020347;28;58688;-60
2023/05/20 01:04:50;;;;;;;0.40;0.40;;;;;;;;;;5022610;28;58342;-60
2023/05/20 01:07:16;;;;;;;0.20;0.20;;;;;;;;;;5026169;28;59908;-61
2023/05/20 01:09:42;;;;;;;0.43;0.32;;;;;;;;;;5020808;28;58304;-60
2023/05/20 01:12:19;;;;;;;0.30;0.30;;;;;;;;;;5020776;28;58501;-60
2023/05/20 01:14:48;;;;;;;0.20;0.20;;;;;;;;;;5025340;28;58911;-61
2023/05/20 01:17:16;;;;;;;0.22;0.22;;;;;;;;;;5025182;28;58275;-61
2023/05/20 01:19:45;;;;;;;1.45;0.90;;;;;;;;;;5022064;28;58403;-58
2023/05/20 01:22:11;;;;;;;0.30;0.28;;;;;;;;;;5015263;28;58792;-60
2023/05/20 01:24:38;;;;;;;0.70;0.30;;;;;;;;;;5022894;28;58459;-60
2023/05/20 01:27:04;;;;;;;0.43;0.43;;;;;;;;;;5022437;28;58370;-61
2023/05/20 01:29:31;;;;;;;0.68;0.20;;;;;;;;;;5024522;28;58590;-60
2023/05/20 01:31:57;;;;;;;0.33;0.33;;;;;;;;;;5027625;28;58473;-55
2023/05/20 01:34:24;;;;;;;0.30;0.30;;;;;;;;;;5024753;28;59290;-61
2023/05/20 01:36:49;;;;;;;0.40;0.40;;;;;;;;;;5026687;28;59320;-60
2023/05/20 01:39:15;;;;;;;0.20;0.20;;;;;;;;;;5026607;28;58524;-61
2023/05/20 01:41:40;;;;;;;0.30;0.20;;;;;;;;;;5024844;28;58776;-60
2023/05/20 01:44:06;;;;;;;0.10;0.10;;;;;;;;;;5020890;28;58842;-61
2023/05/20 01:46:32;;;;;;;0.20;0.20;;;;;;;;;;5028980;28;58909;-61
2023/05/20 01:48:57;;;;;;;0.45;0.45;;;;;;;;;;5026171;28;58791;-60
2023/05/20 01:51:22;;;;;;;0.20;0.20;;;;;;;;;;5027370;28;59001;-60
2023/05/20 01:53:47;;;;;;;0.20;0.20;;;;;;;;;;5020587;28;58335;-61
2023/05/20 01:56:12;;;;;;;0.33;0.33;;;;;;;;;;5025114;28;58717;-61
2023/05/20 01:58:37;;;;;;;0.30;0.28;;;;;;;;;;5026789;28;59112;-60
2023/05/20 02:01:03;;;;;;;0.20;0.20;;;;;;;;;;5026725;28;58850;-60
2023/05/20 02:03:28;;;;;;;0.40;0.20;;;;;;;;;;5025845;28;58377;-61
2023/05/20 02:05:53;;;;;;;0.30;0.15;;;;;;;;;;5021398;28;58800;-60
2023/05/20 02:08:18;;;;;;;0.73;0.20;;;;;;;;;;5023448;28;58626;-61
2023/05/20 02:10:43;;;;;;;0.40;0.30;;;;;;;;;;5022472;28;58816;-60
2023/05/20 02:13:08;;;;;;;0.40;0.30;;;;;;;;;;5025080;28;58454;-61
2023/05/20 02:15:34;;;;;;;0.40;0.30;;;;;;;;;;5024859;28;58325;-61
2023/05/20 02:17:59;;;;;;;0.57;0.57;;;;;;;;;;5022510;28;58517;-60
2023/05/20 02:20:24;;;;;;;0.70;0.50;;;;;;;;;;5022267;28;59076;-61
2023/05/20 02:22:49;;;;;;;0.60;0.22;;;;;;;;;;5021875;28;58434;-60
2023/05/20 02:25:14;;;;;;;0.27;0.27;;;;;;;;;;5023123;28;58783;-63
2023/05/20 02:27:40;;;;;;;0.30;0.30;;;;;;;;;;5020754;28;61749;-60
2023/05/20 02:30:05;;;;;;;0.20;0.20;;;;;;;;;;5023713;28;58471;-59
2023/05/20 02:32:32;;;;;;;0.30;0.30;;;;;;;;;;5027111;28;58043;-60
2023/05/20 02:34:57;;;;;;;0.28;0.28;;;;;;;;;;5025073;28;58222;-60
2023/05/20 02:37:22;;;;;;;0.30;0.30;;;;;;;;;;5025225;28;58466;-60
2023/05/20 02:39:47;;;;;;;0.40;0.40;;;;;;;;;;5021293;28;59006;-60
2023/05/20 02:42:12;;;;;;;0.20;0.20;;;;;;;;;;5024301;28;58493;-57
2023/05/20 02:44:38;;;;;;;0.10;0.10;;;;;;;;;;5026479;28;59254;-60
2023/05/20 02:47:03;;;;;;;0.28;0.28;;;;;;;;;;5027447;28;58432;-60
2023/05/20 02:49:28;;;;;;;0.40;0.40;;;;;;;;;;5020586;28;58544;-60
2023/05/20 02:51:53;;;;;;;0.20;0.20;;;;;;;;;;5026573;28;58413;-60
2023/05/20 02:54:18;;;;;;;0.30;0.17;;;;;;;;;;5022073;28;59246;-60
2023/05/20 02:56:43;;;;;;;0.20;0.20;;;;;;;;;;5027349;28;58394;-60
2023/05/20 02:59:08;;;;;;;0.20;0.20;;;;;;;;;;5023689;28;58359;-59
2023/05/20 03:01:34;;;;;;;0.20;0.20;;;;;;;;;;5018535;28;58937;-60
2023/05/20 03:04:00;;;;;;;0.40;0.40;;;;;;;;;;5026076;28;58386;-61
2023/05/20 03:06:26;;;;;;;0.20;0.20;;;;;;;;;;5025026;28;58464;-60
2023/05/20 03:08:51;;;;;;;0.50;0.50;;;;;;;;;;5022858;28;58599;-60
2023/05/20 03:11:16;;;;;;;0.35;0.35;;;;;;;;;;5021342;28;58367;-60
2023/05/20 03:13:41;;;;;;;0.38;0.30;;;;;;;;;;5024722;28;58557;-59
2023/05/20 03:16:06;;;;;;;1.17;0.20;;;;;;;;;;5025373;28;58370;-60
2023/05/20 03:18:32;;;;;;;0.20;0.20;;;;;;;;;;5026829;28;58843;-59
2023/05/20 03:20:57;;;;;;;0.13;0.10;;;;;;;;;;5018616;28;59517;-60
2023/05/20 03:23:22;;;;;;;0.10;0.10;;;;;;;;;;5023396;28;58392;-60
2023/05/20 03:25:47;;;;;;;0.35;0.25;;;;;;;;;;5023146;28;58850;-59
2023/05/20 03:28:12;;;;;;;0.63;0.20;;;;;;;;;;5025499;28;58419;-60
2023/05/20 03:30:37;;;;;;;0.10;0.10;;;;;;;;;;5024592;28;58365;-60
2023/05/20 03:33:04;;;;;;;0.20;0.20;;;;;;;;;;5018384;28;58685;-60
2023/05/20 03:35:29;;;;;;;0.10;0.10;;;;;;;;;;5021543;28;58179;-60
2023/05/20 03:37:55;;;;;;;1.20;0.57;;;;;;;;;;5026034;28;58756;-60
2023/05/20 03:40:20;;;;;;;0.27;0.27;;;;;;;;;;5024739;28;59660;-59
2023/05/20 03:42:45;;;;;;;0.93;0.30;;;;;;;;;;5025399;28;58717;-60
2023/05/20 03:45:10;;;;;;;0.10;0.10;;;;;;;;;;5021473;28;59003;-60
2023/05/20 03:47:35;;;;;;;0.20;0.20;;;;;;;;;;5022374;28;58618;-59
2023/05/20 03:50:00;;;;;;;0.10;0.10;;;;;;;;;;5026116;28;58446;-60
2023/05/20 03:52:26;;;;;;;0.38;0.20;;;;;;;;;;5023045;28;58506;-60
2023/05/20 03:54:52;;;;;;;0.20;0.20;;;;;;;;;;5023909;28;58786;-59
2023/05/20 03:57:17;;;;;;;0.77;0.77;;;;;;;;;;5021779;28;58886;-58
2023/05/20 03:59:42;;;;;;;0.20;0.20;;;;;;;;;;5023207;28;58703;-59
2023/05/20 04:02:07;;;;;;;0.40;0.40;;;;;;;;;;5022723;28;58011;-60
2023/05/20 04:04:33;;;;;;;0.30;0.30;;;;;;;;;;5025010;28;58923;-60
2023/05/20 04:07:01;;;;;;;0.10;0.10;;;;;;;;;;5019382;28;58887;-60
2023/05/20 04:09:27;;;;;;;0.47;0.47;;;;;;;;;;5023311;28;58389;-58
2023/05/20 04:11:52;;;;;;;0.20;0.20;;;;;;;;;;5024050;28;58406;-60
2023/05/20 04:14:17;;;;;;;0.57;0.30;;;;;;;;;;5022153;28;58488;-59
2023/05/20 04:16:43;;;;;;;0.20;0.20;;;;;;;;;;5019910;28;59123;-60
2023/05/20 04:19:09;;;;;;;0.20;0.20;;;;;;;;;;5024077;28;58759;-59
2023/05/20 04:21:34;;;;;;;0.20;0.20;;;;;;;;;;5024343;28;59043;-61
2023/05/20 04:24:00;;;;;;;0.20;0.20;;;;;;;;;;5021985;28;58776;-60
2023/05/20 04:26:25;;;;;;;0.30;0.30;;;;;;;;;;5019835;28;58525;-60
2023/05/20 04:28:50;;;;;;;0.10;0.10;;;;;;;;;;5019561;28;58414;-60
2023/05/20 04:31:15;;;;;;;0.37;0.10;;;;;;;;;;5021383;28;58401;-60
2023/05/20 04:33:41;;;;;;;0.30;0.20;;;;;;;;;;5021910;28;61399;-59
2023/05/20 04:36:08;;;;;;;0.20;0.20;;;;;;;;;;5022400;28;58910;-60
2023/05/20 04:38:34;;;;;;;0.55;0.55;;;;;;;;;;5015599;28;58551;-57
2023/05/20 04:41:00;;;;;;;0.20;0.20;;;;;;;;;;5022493;28;58417;-57
2023/05/20 04:43:28;;;;;;;0.20;0.20;;;;;;;;;;5022868;28;58612;-61
2023/05/20 04:45:54;;;;;;;0.20;0.20;;;;;;;;;;5022112;28;58773;-60
2023/05/20 04:48:21;;;;;;;0.20;0.10;;;;;;;;;;5017109;28;57992;-60
2023/05/20 04:50:47;;;;;;;0.10;0.10;;;;;;;;;;5017065;28;59332;-60
2023/05/20 04:53:12;;;;;;;0.47;0.32;;;;;;;;;;5025387;28;58496;-59
2023/05/20 04:55:37;;;;;;;0.20;0.20;;;;;;;;;;5023347;28;58563;-60
2023/05/20 04:58:03;;;;;;;0.55;0.30;;;;;;;;;;5022403;28;58673;-59
2023/05/20 05:00:28;;;;;;;1.03;0.50;;;;;;;;;;5019144;28;58456;-58
2023/05/20 05:02:53;;;;;;;0.13;0.13;;;;;;;;;;5021194;28;59837;-60
2023/05/20 05:05:18;;;;;;;1.45;0.30;;;;;;;;;;5020951;28;58548;-61
2023/05/20 05:07:43;;;;;;;0.30;0.20;;;;;;;;;;5021565;28;58204;-63
2023/05/20 05:10:09;;;;;;;0.35;0.20;;;;;;;;;;5022740;28;58622;-59
2023/05/20 05:12:34;;;;;;;0.10;0.10;;;;;;;;;;5017222;28;58445;-60
2023/05/20 05:14:59;;;;;;;0.13;0.13;;;;;;;;;;5023339;28;58258;-60
2023/05/20 05:17:25;;;;;;;0.13;0.13;;;;;;;;;;5021787;28;58402;-59
2023/05/20 05:19:50;;;;;;;0.20;0.20;;;;;;;;;;5023855;28;58693;-58
2023/05/20 05:22:15;;;;;;;0.43;0.40;;;;;;;;;;5018950;28;58398;-57
2023/05/20 05:24:40;;;;;;;0.45;0.30;;;;;;;;;;5017442;28;59352;-58
2023/05/20 05:27:05;;;;;;;0.30;0.27;;;;;;;;;;5022201;28;59627;-60
2023/05/20 05:29:30;;;;;;;0.13;0.13;;;;;;;;;;5023053;28;58406;-57
2023/05/20 05:31:56;;;;;;;0.10;0.10;;;;;;;;;;5022538;28;58756;-56
2023/05/20 05:34:21;;;;;;;0.23;0.20;;;;;;;;;;5014667;28;58361;-60
2023/05/20 05:36:46;;;;;;;0.15;0.15;;;;;;;;;;5020523;28;58871;-60
2023/05/20 05:39:11;;;;;;;0.20;0.20;;;;;;;;;;5022619;28;58435;-60
2023/05/20 05:41:36;;;;;;;0.20;0.20;;;;;;;;;;5021384;28;58699;-60
2023/05/20 05:44:01;;;;;;;0.20;0.20;;;;;;;;;;5022722;28;58124;-59
2023/05/20 05:46:26;;;;;;;0.17;0.17;;;;;;;;;;5017564;28;58767;-60
2023/05/20 05:48:52;;;;;;;0.27;0.20;;;;;;;;;;5024469;28;58697;-59
2023/05/20 05:51:17;;;;;;;0.10;0.10;;;;;;;;;;5021435;28;58371;-60
2023/05/20 05:53:42;;;;;;;0.20;0.20;;;;;;;;;;5023051;28;58250;-59
2023/05/20 05:56:08;;;;;;;0.20;0.20;;;;;;;;;;5022791;28;58570;-61
2023/05/20 05:58:33;;;;;;;0.75;0.15;;;;;;;;;;5015236;28;58518;-60
2023/05/20 06:00:58;;;;;;;0.20;0.20;;;;;;;;;;5018950;28;58632;-60
2023/05/20 06:03:23;;;;;;;0.30;0.13;;;;;;;;;;5023278;28;58736;-59
2023/05/20 06:05:49;;;;;;;0.47;0.38;;;;;;;;;;5020721;28;58473;-57
2023/05/20 06:08:14;;;;;;;1.23;0.43;;;;;;;;;;5016837;28;58986;-60
2023/05/20 06:10:39;;;;;;;0.17;0.17;;;;;;;;;;5022381;28;58901;-59
2023/05/20 06:13:04;;;;;;;0.13;0.13;;;;;;;;;;5024172;28;58636;-59
2023/05/20 06:15:29;;;;;;;0.10;0.10;;;;;;;;;;5025213;28;58344;-59
2023/05/20 06:17:55;;;;;;;0.20;0.20;;;;;;;;;;5024440;28;58834;-60
2023/05/20 06:20:20;;;;;;;0.10;0.10;;;;;;;;;;5027526;28;58778;-57
2023/05/20 06:22:45;;;;;;;0.17;0.17;;;;;;;;;;5026184;28;58520;-60
2023/05/20 06:25:11;;;;;;;0.27;0.23;;;;;;;;;;5028242;28;58655;-59
2023/05/20 06:27:37;;;;;;;0.28;0.28;;;;;;;;;;5022422;28;59502;-61
2023/05/20 06:30:02;;;;;;;0.20;0.20;;;;;;;;;;5020801;28;58419;-60
2023/05/20 06:32:27;;;;;;;0.30;0.20;;;;;;;;;;5025472;28;58375;-60
2023/05/20 06:34:52;;;;;;;0.20;0.20;;;;;;;;;;5020625;28;59029;-57
2023/05/20 06:37:17;;;;;;;0.30;0.30;;;;;;;;;;5019889;28;58582;-60
2023/05/20 06:39:43;;;;;;;0.57;0.40;;;;;;;;;;5020023;28;58989;-59
2023/05/20 06:42:08;;;;;;;0.40;0.40;;;;;;;;;;5025313;28;58765;-60
2023/05/20 06:44:33;;;;;;;0.30;0.30;;;;;;;;;;5022574;28;59254;-58
2023/05/20 06:46:58;;;;;;;1.80;0.47;;;;;;;;;;5021345;28;59041;-59
2023/05/20 06:49:23;;;;;;;0.20;0.10;;;;;;;;;;5018775;28;58888;-60
2023/05/20 06:51:49;;;;;;;0.17;0.10;;;;;;;;;;5028089;28;58652;-60
2023/05/20 06:54:14;;;;;;;1.55;0.63;;;;;;;;;;5027485;28;58514;-60
2023/05/20 06:56:39;;;;;;;0.10;0.10;;;;;;;;;;5025469;28;58564;-60
2023/05/20 06:59:04;;;;;;;0.57;0.47;;;;;;;;;;5021700;28;58754;-60
2023/05/20 07:01:30;;;;;;;0.30;0.30;;;;;;;;;;5013833;28;58704;-59
2023/05/20 07:03:55;;;;;;;0.40;0.30;;;;;;;;;;5025514;28;59558;-59
2023/05/20 07:06:20;;;;;;;0.77;0.35;;;;;;;;;;5019791;28;59004;-59
2023/05/20 07:08:46;;;;;;;1.67;0.20;;;;;;;;;;5023886;28;58487;-60
2023/05/20 07:11:11;;;;;;;0.40;0.40;;;;;;;;;;5021202;28;58324;-57
2023/05/20 07:13:36;;;;;;;0.88;0.22;;;;;;;;;;5025810;28;58799;-61
2023/05/20 07:16:01;;;;;;;0.40;0.20;;;;;;;;;;5024595;28;58783;-59
2023/05/20 07:18:27;;;;;;;0.68;0.40;;;;;;;;;;5025536;28;58394;-59
2023/05/20 07:20:52;;;;;;;0.30;0.20;;;;;;;;;;5022577;28;58931;-60
2023/05/20 07:23:17;;;;;;;0.55;0.45;;;;;;;;;;5021012;28;58775;-60
2023/05/20 07:25:42;;;;;;;1.23;0.50;;;;;;;;;;5020546;28;58655;-58
2023/05/20 07:28:08;;;;;;;1.10;0.20;;;;;;;;;;5015372;28;58577;-60
2023/05/20 07:30:33;;;;;;;0.47;0.25;;;;;;;;;;5015374;28;58675;-58
2023/05/20 07:32:58;;;;;;;1.20;0.30;;;;;;;;;;5015129;28;58873;-60
2023/05/20 07:35:23;;;;;;;0.50;0.43;;;;;;;;;;5017352;28;58849;-59
2023/05/20 07:37:48;;;;;;;0.13;0.07;;;;;;;;;;5025271;28;58718;-61
2023/05/20 07:40:13;;;;;;;0.40;0.20;;;;;;;;;;5026618;28;58172;-59
2023/05/20 07:42:39;;;;;;;0.50;0.47;;;;;;;;;;5024203;28;58663;-63
2023/05/20 07:45:05;;;;;;;1.97;0.90;;;;;;;;;;5022063;28;58664;-60
2023/05/20 07:47:30;;;;;;;1.77;0.20;;;;;;;;;;5017896;28;59390;-62
2023/05/20 07:49:55;;;;;;;0.25;0.20;;;;;;;;;;5020779;28;58708;-59
2023/05/20 07:52:20;;;;;;;2.03;0.40;;;;;;;;;;5022908;28;58440;-59
2023/05/20 07:54:46;;;;;;;1.40;0.22;;;;;;;;;;5019600;28;58502;-61
2023/05/20 07:57:11;;;;;;;0.40;0.32;;;;;;;;;;5020744;28;58789;-57
2023/05/20 07:59:36;;;;;;;0.10;0.10;;;;;;;;;;5019616;28;59156;-61
2023/05/20 08:02:02;;;;;;;3.30;0.20;;;;;;;;;;5021828;28;58450;-59
2023/05/20 08:04:27;;;;;;;2.72;0.65;;;;;;;;;;5022823;28;58518;-61
2023/05/20 08:06:52;;;;;;;3.17;0.30;;;;;;;;;;5024235;28;58339;-61
2023/05/20 08:09:18;;;;;;;0.67;0.67;;;;;;;;;;5020869;28;58711;-60
2023/05/20 08:11:43;;;;;;;1.20;0.65;;;;;;;;;;5026350;28;58412;-60
2023/05/20 08:14:08;;;;;;;0.50;0.50;;;;;;;;;;5023277;28;58429;-61
2023/05/20 08:16:34;;;;;;;0.50;0.40;;;;;;;;;;5026940;28;58852;-61
2023/05/20 08:18:59;;;;;;;1.38;0.25;;;;;;;;;;5026173;28;58366;-61
2023/05/20 08:21:25;;;;;;;0.70;0.20;;;;;;;;;;5030354;28;58352;-61
2023/05/20 08:23:50;;;;;;;2.08;0.52;;;;;;;;;;5021444;28;58971;-62
2023/05/20 08:26:15;;;;;;;0.65;0.30;;;;;;;;;;5028450;28;59239;-62
2023/05/20 08:28:41;;;;;;;0.83;0.30;;;;;;;;;;5031388;28;58695;-61
2023/05/20 08:31:06;;;;;;;1.53;1.03;;;;;;;;;;5025357;28;58375;-61
2023/05/20 08:33:31;;;;;;;2.47;0.97;;;;;;;;;;5023433;28;57781;-61
2023/05/20 08:35:56;;;;;;;2.73;0.77;;;;;;;;;;5023936;28;58844;-61
2023/05/20 08:38:21;;;;;;;1.63;0.30;;;;;;;;;;5025565;28;58373;-61
2023/05/20 08:40:54;;;;;;;0.93;0.30;;;;;;;;;;5027712;28;58692;-61
2023/05/20 08:43:19;;;;;;;0.93;0.35;;;;;;;;;;5018811;28;58406;-60
2023/05/20 08:45:44;;;;;;;2.47;0.40;;;;;;;;;;5021863;28;59979;-61
2023/05/20 08:48:10;;;;;;;0.93;0.85;;;;;;;;;;5025463;28;58951;-61
2023/05/20 08:50:35;;;;;;;3.15;0.63;;;;;;;;;;5021427;28;59178;-61
2023/05/20 08:53:01;;;;;;;5.90;0.40;;;;;;;;;;5020965;28;58696;-61
2023/05/20 08:55:59;;;;;;;0.77;0.50;;;;;;;;;;5015111;28;58844;-60
2023/05/20 08:58:24;;;;;;;2.47;0.43;;;;;;;;;;5012284;28;58694;-61
2023/05/20 09:00:50;;;;;;;2.60;0.90;;;;;;;;;;5022584;28;58465;-60
2023/05/20 09:03:15;;;;;;;5.25;0.70;;;;;;;;;;5023113;28;58517;-61
2023/05/20 09:05:41;;;;;;;2.25;0.98;;;;;;;;;;5020237;28;58945;-60
2023/05/20 09:08:07;;;;;;;1.53;0.83;;;;;;;;;;5021831;28;58336;-61
2023/05/20 09:10:32;;;;;;;1.23;0.75;;;;;;;;;;5023966;28;58418;-61
2023/05/20 09:12:59;;;;;;;4.93;1.23;;;;;;;;;;5025424;28;59033;-61
2023/05/20 09:15:24;;;;;;;4.38;0.40;;;;;;;;;;5021210;28;58787;-65
2023/05/20 09:17:49;;;;;;;2.30;0.38;;;;;;;;;;5024437;28;58822;-60
2023/05/20 09:20:15;;;;;;;7.10;1.30;;;;;;;;;;5021786;28;58457;-63
2023/05/20 09:22:40;;;;;;;2.80;0.57;;;;;;;;;;5023843;28;58438;-63
2023/05/20 09:25:06;;;;;;;1.07;0.67;;;;;;;;;;5028884;28;59056;-62
2023/05/20 09:27:32;;;;;;;2.38;0.82;;;;;;;;;;5026755;28;58504;-62
2023/05/20 09:29:57;;;;;;;5.28;0.93;;;;;;;;;;5025283;28;58392;-62
2023/05/20 09:32:25;;;;;;;8.33;2.37;;;;;;;;;;5026342;28;58758;-61
2023/05/20 09:34:50;;;;;;;2.90;1.00;;;;;;;;;;5026027;28;58449;-66
2023/05/20 09:37:20;;;;;;;2.60;1.05;;;;;;;;;;5024610;28;58591;-64
2023/05/20 09:39:58;;;;;;;1.40;0.75;;;;;;;;;;5023484;28;59204;-65
2023/05/20 09:42:27;;;;;;;5.20;1.33;;;;;;;;;;5029613;28;58739;-63
2023/05/20 09:44:53;;;;;;;1.20;0.60;;;;;;;;;;5025595;28;59829;-64
2023/05/20 09:47:19;;;;;;;3.03;0.80;;;;;;;;;;5028721;28;58679;-65
2023/05/20 09:49:46;;;;;;;2.65;0.80;;;;;;;;;;5027690;28;58536;-65
2023/05/20 09:52:11;;;;;;;1.38;0.73;;;;;;;;;;5032601;28;60459;-58
2023/05/20 09:54:37;;;;;;;1.65;0.52;;;;;;;;;;5030151;28;59137;-59
2023/05/20 09:57:03;;;;;;;5.20;0.87;;;;;;;;;;5031094;28;59411;-60
2023/05/20 09:59:28;;;;;;;2.47;0.93;;;;;;;;;;5029675;28;58596;-61
2023/05/20 10:01:54;;;;;;;2.83;0.93;;;;;;;;;;5030062;28;58707;-60
2023/05/20 10:04:19;;;;;;;5.53;0.55;;;;;;;;;;5022329;28;58527;-61
2023/05/20 10:06:54;;;;;;;2.13;1.10;;;;;;;;;;5025839;28;58633;-61
2023/05/20 10:09:26;;;;;;;3.60;0.90;;;;;;;;;;5018734;28;58295;-61
2023/05/20 10:11:57;;;;;;;1.70;0.70;;;;;;;;;;5027562;28;59333;-60
2023/05/20 10:14:27;;;;;;;3.58;0.70;;;;;;;;;;5027277;28;58605;-60
2023/05/20 10:17:11;;;;;;;1.73;0.70;;;;;;;;;;5028217;28;58409;-62
2023/05/20 10:19:37;;;;;;;1.45;0.45;;;;;;;;;;5021826;28;58702;-62
2023/05/20 10:22:09;;;;;;;2.58;0.63;;;;;;;;;;5029033;28;58339;-61
2023/05/20 10:24:41;;;;;;;1.60;0.88;;;;;;;;;;5026583;28;58505;-60
2023/05/20 10:27:07;;;;;;;3.75;0.50;;;;;;;;;;5028787;28;58376;-61
2023/05/20 10:29:42;;;;;;;4.10;0.73;;;;;;;;;;5021188;28;58526;-61
2023/05/20 10:32:08;;;;;;;8.90;1.23;;;;;;;;;;5029014;28;58297;-60
2023/05/20 10:34:43;;;;;;;1.25;0.77;;;;;;;;;;5028087;28;58333;-60
2023/05/20 10:37:08;;;;;;;4.18;0.65;;;;;;;;;;5023156;28;59140;-59
2023/05/20 10:39:33;;;;;;;3.92;1.55;;;;;;;;;;5021161;28;58840;-61
2023/05/20 10:42:05;;;;;;;2.60;0.73;;;;;;;;;;5017127;28;59001;-60
2023/05/20 10:44:41;;;;;;;3.42;0.82;;;;;;;;;;5019124;28;59072;-60
2023/05/20 10:47:06;;;;;;;2.08;1.13;;;;;;;;;;5028003;28;58773;-60
2023/05/20 10:49:35;;;;;;;3.88;1.02;;;;;;;;;;5027522;28;58756;-60
2023/05/20 10:52:00;;;;;;;2.83;1.10;;;;;;;;;;5022953;28;58341;-61
2023/05/20 10:54:25;;;;;;;5.97;1.35;;;;;;;;;;5027483;28;58602;-60
2023/05/20 10:56:52;;;;;;;5.65;1.25;;;;;;;;;;5028178;28;59656;-60
2023/05/20 10:59:17;;;;;;;2.88;1.23;;;;;;;;;;5027872;28;60264;-60
2023/05/20 11:01:42;;;;;;;3.55;1.55;;;;;;;;;;5021686;28;58497;-61
2023/05/20 11:04:08;;;;;;;3.80;1.20;;;;;;;;;;5027258;28;58436;-60
2023/05/20 11:06:33;;;;;;;2.53;1.02;;;;;;;;;;5027019;28;58856;-60
2023/05/20 11:09:03;;;;;;;2.67;1.13;;;;;;;;;;5028912;28;58469;-61
2023/05/20 11:11:29;;;;;;;4.43;1.40;;;;;;;;;;5026250;28;58987;-61
2023/05/20 11:13:55;;;;;;;3.13;0.93;;;;;;;;;;5024508;28;58741;-60
2023/05/20 11:16:21;;;;;;;6.40;1.33;;;;;;;;;;5029300;28;58423;-58
2023/05/20 11:18:47;;;;;;;1.25;0.63;;;;;;;;;;5028448;28;59111;-61
2023/05/20 11:21:12;;;;;;;3.20;1.40;;;;;;;;;;5028326;28;58758;-61
2023/05/20 11:23:37;;;;;;;1.35;0.80;;;;;;;;;;5025429;28;58390;-60
2023/05/20 11:26:02;;;;;;;2.83;0.70;;;;;;;;;;5028647;28;58752;-61
2023/05/20 11:28:29;;;;;;;6.27;1.00;;;;;;;;;;5028103;28;58498;-60
2023/05/20 11:30:54;;;;;;;1.58;1.35;;;;;;;;;;5029429;28;58322;-60
2023/05/20 11:33:19;;;;;;;2.58;0.90;;;;;;;;;;5026485;28;58686;-60
2023/05/20 11:35:48;;;;;;;1.27;0.60;;;;;;;;;;5021519;28;58753;-61
2023/05/20 11:38:14;;;;;;;0.80;0.60;;;;;;;;;;5027335;28;58676;-60
2023/05/20 11:40:46;;;;;;;2.15;0.93;;;;;;;;;;5026196;28;58621;-61
2023/05/20 11:43:12;;;;;;;2.85;1.02;;;;;;;;;;5028842;28;58742;-60
2023/05/20 11:45:44;;;;;;;3.97;1.05;;;;;;;;;;5018183;28;59471;-59
2023/05/20 11:48:10;;;;;;;4.88;1.30;;;;;;;;;;5027383;28;58294;-61
2023/05/20 11:50:39;;;;;;;1.92;1.10;;;;;;;;;;5026448;28;58869;-60
2023/05/20 11:53:08;;;;;;;1.25;0.98;;;;;;;;;;5027047;28;59505;-61
2023/05/20 11:55:43;;;;;;;2.88;0.98;;;;;;;;;;5027769;28;58453;-61
2023/05/20 11:58:08;;;;;;;2.85;0.73;;;;;;;;;;5023996;28;58735;-61
2023/05/20 12:00:33;;;;;;;1.77;0.67;;;;;;;;;;5024874;28;58338;-60
2023/05/20 12:02:58;;;;;;;2.17;0.98;;;;;;;;;;5027031;28;58726;-62
2023/05/20 12:05:24;;;;;;;1.88;0.75;;;;;;;;;;5026927;28;58701;-60
2023/05/20 12:07:49;;;;;;;1.70;0.70;;;;;;;;;;5022612;28;58821;-60
2023/05/20 12:10:14;;;;;;;2.60;1.23;;;;;;;;;;5026422;28;59211;-60
2023/05/20 12:12:39;;;;;;;1.73;0.97;;;;;;;;;;5023347;28;58569;-61
2023/05/20 12:15:05;;;;;;;1.40;0.87;;;;;;;;;;5027263;28;59038;-61
2023/05/20 12:17:43;;;;;;;3.78;0.90;;;;;;;;;;5022859;28;58367;-61
2023/05/20 12:20:09;;;;;;;3.88;1.80;;;;;;;;;;5025196;28;58687;-61
2023/05/20 12:22:34;;;;;;;3.30;0.67;;;;;;;;;;5028105;28;58494;-60
2023/05/20 12:24:59;;;;;;;2.47;0.97;;;;;;;;;;5028284;28;58411;-60
2023/05/20 12:27:25;;;;;;;1.38;0.85;;;;;;;;;;5025366;28;58469;-59
2023/05/20 12:29:50;;;;;;;0.77;0.50;;;;;;;;;;5023489;28;58885;-60
2023/05/20 12:32:15;;;;;;;2.45;1.30;;;;;;;;;;5026275;28;58704;-60
2023/05/20 12:34:40;;;;;;;10.67;1.63;;;;;;;;;;5025463;28;58204;-61
2023/05/20 12:37:06;;;;;;;3.22;0.75;;;;;;;;;;5028086;28;58981;-60
2023/05/20 12:39:31;;;;;;;2.17;0.75;;;;;;;;;;5018957;28;58710;-60
2023/05/20 12:41:56;;;;;;;1.17;1.00;;;;;;;;;;5026984;28;58247;-60
2023/05/20 12:44:21;;;;;;;1.47;0.70;;;;;;;;;;5025435;28;58823;-57
2023/05/20 12:46:46;;;;;;;2.05;1.27;;;;;;;;;;5026860;28;58369;-60
2023/05/20 12:49:11;;;;;;;2.47;1.30;;;;;;;;;;5023601;28;58702;-61
2023/05/20 12:51:36;;;;;;;1.17;0.70;;;;;;;;;;5027025;28;58782;-60
2023/05/20 12:54:02;;;;;;;2.55;0.93;;;;;;;;;;5025475;28;58472;-60
2023/05/20 12:56:27;;;;;;;1.83;1.20;;;;;;;;;;5027513;28;58527;-61
2023/05/20 12:58:52;;;;;;;5.30;1.10;;;;;;;;;;5025528;28;58502;-60
2023/05/20 13:01:17;;;;;;;2.97;0.80;;;;;;;;;;5019981;28;58504;-59
2023/05/20 13:03:42;;;;;;;1.83;0.75;;;;;;;;;;5027862;28;58737;-61
2023/05/20 13:06:07;;;;;;;1.55;0.95;;;;;;;;;;5025421;28;58754;-61
2023/05/20 13:08:32;;;;;;;1.13;1.00;;;;;;;;;;5027505;28;58433;-61
2023/05/20 13:10:58;;;;;;;1.85;0.63;;;;;;;;;;5018842;28;58990;-60
2023/05/20 13:13:23;;;;;;;0.47;0.47;;;;;;;;;;5026672;28;58370;-61
2023/05/20 13:15:48;;;;;;;2.03;1.05;;;;;;;;;;5028417;28;59026;-61
2023/05/20 13:18:15;;;;;;;2.03;0.80;;;;;;;;;;5026261;28;58773;-60
2023/05/20 13:20:40;;;;;;;0.63;0.50;;;;;;;;;;5027361;28;58353;-61
2023/05/20 13:23:05;;;;;;;1.02;0.50;;;;;;;;;;5019997;28;58973;-60
2023/05/20 13:25:30;;;;;;;1.87;1.13;;;;;;;;;;5029410;28;58728;-61
2023/05/20 13:27:56;;;;;;;1.93;0.97;;;;;;;;;;5029617;28;58628;-61
2023/05/20 13:30:21;;;;;;;1.48;0.80;;;;;;;;;;5031132;28;58880;-61
2023/05/20 13:32:47;;;;;;;0.85;0.85;;;;;;;;;;5025427;28;58544;-61
2023/05/20 13:35:13;;;;;;;1.70;0.90;;;;;;;;;;5029975;28;58824;-60
2023/05/20 13:37:38;;;;;;;2.97;1.35;;;;;;;;;;5027853;28;58780;-61
2023/05/20 13:40:03;;;;;;;3.87;1.47;;;;;;;;;;5030159;28;58075;-60
2023/05/20 13:42:30;;;;;;;4.40;0.73;;;;;;;;;;5029243;28;58959;-61
2023/05/20 13:44:55;;;;;;;1.88;0.90;;;;;;;;;;5021336;28;58518;-60
2023/05/20 13:47:20;;;;;;;2.72;1.33;;;;;;;;;;5030354;28;58778;-60
2023/05/20 13:49:45;;;;;;;0.57;0.47;;;;;;;;;;5029693;28;58729;-60
2023/05/20 13:52:10;;;;;;;0.70;0.70;;;;;;;;;;5030827;28;58783;-61
2023/05/20 13:54:35;;;;;;;0.60;0.60;;;;;;;;;;5023915;28;58490;-60
2023/05/20 13:57:01;;;;;;;2.17;0.63;;;;;;;;;;5028272;28;58630;-60
2023/05/20 13:59:27;;;;;;;1.15;0.90;;;;;;;;;;5028637;28;58530;-61
2023/05/20 14:01:52;;;;;;;1.40;0.83;;;;;;;;;;5030488;28;58786;-60
2023/05/20 14:04:17;;;;;;;1.00;0.50;;;;;;;;;;5024349;28;58792;-61
2023/05/20 14:06:42;;;;;;;1.05;0.55;;;;;;;;;;5027853;28;58671;-60
2023/05/20 14:09:08;;;;;;;2.20;0.90;;;;;;;;;;5025739;28;58364;-60
2023/05/20 14:11:33;;;;;;;3.45;0.63;;;;;;;;;;5028999;28;58648;-58
2023/05/20 14:13:58;;;;;;;1.40;0.50;;;;;;;;;;5028333;28;58398;-61
2023/05/20 14:16:23;;;;;;;2.40;1.77;;;;;;;;;;5021888;28;58350;-60
2023/05/20 14:18:48;;;;;;;1.03;0.70;;;;;;;;;;5028794;28;58721;-61
2023/05/20 14:21:13;;;;;;;0.93;0.70;;;;;;;;;;5028890;28;58784;-60
2023/05/20 14:23:43;;;;;;;1.37;1.07;;;;;;;;;;5027158;28;58779;-61
2023/05/20 14:26:08;;;;;;;1.95;1.13;;;;;;;;;;5022170;28;58791;-59
2023/05/20 14:28:33;;;;;;;0.80;0.70;;;;;;;;;;5026743;28;58698;-60
2023/05/20 14:30:58;;;;;;;0.93;0.70;;;;;;;;;;5029010;28;58582;-61
2023/05/20 14:33:23;;;;;;;1.08;0.50;;;;;;;;;;5029162;28;58691;-60
2023/05/20 14:35:48;;;;;;;1.50;0.70;;;;;;;;;;5027751;28;58470;-60